Flight Track Log - Related Links

Times and Time Zones

All times are in EDT time to prevent confusion due to time zone crossing. See the QXE2594 flight status page for this flight to view local times or setup timezone preferences in your user account.

Time Position Orientation Groundspeed Altitude Reporting Facility
EDT Latitude Longitude Course Direction KTS MPH feet Rate Location/Type
Mon 05:03:24 PM 47.3967 -121.6978 98° East 293 337 11,600  Level Seattle Center
Mon 05:04:25 PM 47.3853 -121.5725 98° East 311 358 13,500 1,820 Climbing Seattle Center
Mon 05:05:26 PM 47.3925 -121.4422 85° East 321 369 15,300 1,770 Climbing Seattle Center
Mon 05:06:27 PM 47.3958 -121.3058 88° East 337 388 17,100 1,721 Climbing Seattle Center
Mon 05:07:28 PM 47.3989 -121.1344 88° East 353 406 18,800 942 Climbing Seattle Center
Mon 05:08:28 PM 47.4003 -120.9864 89° East 364 419 19,000 99 Climbing Seattle Center
Mon 05:09:29 PM 47.4047 -120.8422 87° East 359 413 19,000  Level Seattle Center
Mon 05:10:30 PM 47.4092 -120.7067 87° East 362 417 19,000 -49 Level Seattle Center
Mon 05:11:31 PM 47.4108 -120.5519 89° East 375 432 18,900  Descending Seattle Center
Mon 05:12:32 PM 47.4125 -120.3706 89° East 370 426 19,000 50 Climbing Seattle Center
Mon 05:13:32 PM 47.4150 -120.2203 89° East 368 423 19,000 -50 Level Seattle Center
Mon 05:14:33 PM 47.4175 -120.0669 89° East 374 430 18,900  Descending Seattle Center
Mon 05:15:34 PM 47.4186 -119.9158 89° East 370 426 19,000 49 Climbing Seattle Center
Mon 05:16:35 PM 47.4192 -119.7644 90° East 370 426 19,000  Level Seattle Center
Mon 05:17:36 PM 47.4208 -119.6167 89° East 364 419 19,000  Level Seattle Center
Mon 05:19:00 PM 47.4195 -119.4495 91° East  Level FlightAware Approximate
Mon 05:26:00 PM 47.4167 -118.6135 90° East  Level FlightAware Approximate
Mon 05:27:00 PM 47.4167 -118.4940 90° East  Level FlightAware Approximate
Mon 05:28:00 PM 47.4167 -118.3746 90° East  Level FlightAware Approximate
Mon 05:29:00 PM 47.4191 -118.2557 72° East  Level FlightAware Approximate
Mon 05:30:00 PM 47.4444 -118.1423 72° East  Level FlightAware Approximate
Mon 05:31:00 PM 47.4696 -118.0287 72° East  Level FlightAware Approximate
Mon 05:32:00 PM 47.4996 -117.9180 64° Northeast  Level FlightAware Approximate
Mon 05:33:00 PM 47.5277 -117.8058 70° East  Level FlightAware Approximate
Mon 05:34:00 PM 47.5605 -117.6965 67° East  Level FlightAware Approximate
Mon 05:35:00 PM 47.5947 -117.5882 59° Northeast  Level FlightAware Approximate
Mon 05:36:00 PM 47.6167 -117.5333 59° Northeast  Level FlightAware Approximate
Mon 05:37:00 PM 47.6190 -117.5352 59° Northeast  Level Estimated
Mon 05:38:00 PM 47.6167 -117.5333 59° Northeast  Level FlightAware Approximate
Mon 05:39:00 PM 47.6190 -117.5352 59° Northeast  Level Estimated
Mon 05:40:00 PM 47.6167 -117.5333 59° Northeast  Level FlightAware Approximate
Mon 05:41:00 PM 47.6190 -117.5352 59° Northeast  Level Estimated
Mon 05:42:00 PM 47.6167 -117.5333 59° Northeast  Level FlightAware Approximate
Mon 05:43:00 PM 47.6190 -117.5352 59° Northeast  Level Estimated
Mon 05:44:00 PM 47.6167 -117.5333 59° Northeast  Level FlightAware Approximate
Mon 05:45:00 PM 47.6190 -117.5352 59° Northeast  Level Estimated
Mon 05:46:00 PM 47.6167 -117.5333 59° Northeast  Level FlightAware Approximate
Mon 05:47:00 PM 47.6190 -117.5352 59° Northeast  Level Estimated
Mon 05:48:00 PM 47.6167 -117.5333 59° Northeast  Level FlightAware Approximate
Mon 05:49:00 PM 47.6190 -117.5352 59° Northeast  Level Estimated
Mon 05:50:00 PM 47.6167 -117.5333 59° Northeast  Level FlightAware Approximate
Mon 05:51:00 PM 47.6190 -117.5352 59° Northeast  Level Estimated
Mon 05:52:00 PM 47.6167 -117.5333 59° Northeast  Level FlightAware Approximate

Login

Don't have an account? Register now (free) for customized features, flight alerts, and more!